Flight Track Log - Related Links

Times and Time Zones

All times are in EST time to prevent confusion due to time zone crossing. See the SWA4079 flight status page for this flight to view local times or setup timezone preferences in your user account.

Time Position Orientation Groundspeed Altitude Reporting Facility
EST Latitude Longitude Course Direction KTS MPH feet Rate Location/Type
Tue 10:24:08 PM 41.8167 -87.7500 107° East 193 222 2,800  Level Chicago TRACON
Tue 10:26:29 PM 41.8228 -87.5253 88° East 287 330 10,800 3,356 Climbing Chicago Center
Tue 10:27:30 PM 41.8125 -87.4119 97° East 313 360 14,100 2,780 Climbing Chicago Center
Tue 10:28:32 PM 41.7947 -87.2797 100° East 355 409 16,500 2,634 Climbing Chicago Center
Tue 10:29:00 PM 41.5811 -86.8445 107° East  Level Estimated
Tue 10:29:33 PM 41.7733 -87.1389 101° East 380 437 19,500  Level Chicago Center
Tue 10:30:34 PM 41.7625 -86.9944 96° East 392 451 22,200 2,508 Climbing Chicago Center
Tue 10:31:35 PM 41.7644 -86.8408 89° East 409 471 24,600 1,967 Climbing Chicago Center
Tue 10:32:36 PM 41.7664 -86.6594 89° East 431 496 26,200 1,377 Climbing Chicago Center
Tue 10:33:37 PM 41.7675 -86.4808 89° East 472 543 27,400 1,426 Climbing Chicago Center
Tue 10:34:38 PM 41.7667 -86.2925 90° East 502 578 29,100 1,623 Climbing Chicago Center
Tue 10:35:39 PM 41.7561 -86.1028 94° East 511 588 30,700 1,475 Climbing Chicago Center
Tue 10:36:40 PM 41.7433 -85.9083 95° East 520 598 32,100 1,328 Climbing Chicago Center
Tue 10:37:41 PM 41.7311 -85.7067 95° East 536 617 33,400 1,230 Climbing Chicago Center
Tue 10:38:42 PM 41.7183 -85.4983 95° East 549 632 34,600 1,279 Climbing Chicago Center
Tue 10:39:43 PM 41.7008 -85.2728 96° East 554 638 36,000 1,377 Climbing Chicago Center
Tue 10:40:44 PM 41.6894 -85.0706 94° East 569 655 37,400 1,355 Climbing Chicago Center
Tue 10:41:16 PM 41.6789 -84.9431 96° East 560 644 38,100 1,043 Climbing Cleveland Center
Tue 10:42:16 PM 41.6531 -84.7439 100° East 555 639 39,000 450 Climbing Cleveland Center
Tue 10:43:16 PM 41.5822 -84.5672 118° Southeast 530 610 39,000  Level Cleveland Center
Tue 10:44:16 PM 41.5131 -84.3936 118° Southeast 524 603 39,000  Level Cleveland Center
Tue 10:44:48 PM 41.4856 -84.3253 118° Southeast 540 621 39,000  Level Chicago Center
Tue 10:45:16 PM 41.4453 -84.2344 121° Southeast 544 626 39,000  Level Cleveland Center
Tue 10:46:16 PM 41.3736 -84.0561 118° Southeast 544 626 39,000  Level Cleveland Center
Tue 10:47:16 PM 41.3136 -83.8981 117° Southeast 539 620 39,000  Level Cleveland Center
Tue 10:48:16 PM 41.2314 -83.7089 120° Southeast 539 620 39,000  Level Cleveland Center
Tue 10:49:16 PM 41.1511 -83.5119 118° Southeast 539 620 39,000  Level Cleveland Center
Tue 10:50:16 PM 41.0883 -83.3519 117° Southeast 546 628 39,000  Level Cleveland Center
Tue 10:51:16 PM 41.0033 -83.1531 119° Southeast 553 636 39,000  Level Cleveland Center
Tue 10:52:47 PM 40.8889 -82.8764 119° Southeast 532 612 39,000  Level Indianapolis Center
Tue 10:53:47 PM 40.8147 -82.6989 119° Southeast 545 627 39,000  Level Indianapolis Center
Tue 10:54:47 PM 40.7361 -82.5161 120° Southeast 556 640 39,000  Level Indianapolis Center
Tue 10:55:28 PM 40.6844 -82.3958 120° Southeast 557 641 39,000 -119 Level Cleveland Center
Tue 10:56:28 PM 40.6058 -82.2103 119° Southeast 562 647 38,800 -750 Descending Cleveland Center
Tue 10:57:28 PM 40.5331 -82.0447 120° Southeast 569 655 37,500 -900 Descending Cleveland Center
Tue 10:58:28 PM 40.4519 -81.8572 120° Southeast 580 667 37,000 -250 Descending Cleveland Center
Tue 10:59:28 PM 40.3683 -81.6678 120° Southeast 592 681 37,000  Level Cleveland Center
Tue 11:00:28 PM 40.2786 -81.4567 119° Southeast 597 687 37,000 -450 Level Cleveland Center
Tue 11:01:28 PM 40.1964 -81.2708 120° Southeast 597 687 36,100 -850 Descending Cleveland Center
Tue 11:02:28 PM 40.1161 -81.0825 119° Southeast 597 687 35,300 -500 Descending Cleveland Center
Tue 11:03:28 PM 40.0333 -80.8975 120° Southeast 597 687 35,100 -150 Descending Cleveland Center
Tue 11:04:28 PM 39.9503 -80.7131 120° Southeast 597 687 35,000 -50 Descending Cleveland Center
Tue 11:05:28 PM 39.8669 -80.5289 120° Southeast 597 687 35,000 -550 Level Cleveland Center
Tue 11:06:28 PM 39.7939 -80.3400 117° Southeast 597 687 33,900 -1,159 Descending Cleveland Center
Tue 11:08:55 PM 39.6289 -79.8839 115° Southeast 560 644 31,000 -1,413 Descending Washington Center
Tue 11:09:56 PM 39.5644 -79.7022 115° Southeast 555 639 29,000 -1,967 Descending Washington Center
Tue 11:10:57 PM 39.5056 -79.5267 113° Southeast 544 626 27,000 -1,000 Descending Washington Center
Tue 11:11:56 PM 39.4661 -79.3308 105° East 544 626 27,000 -149 Level Washington Center
Tue 11:12:58 PM 39.4275 -79.1569 106° East 555 639 26,700 -1,300 Descending Washington Center
Tue 11:13:56 PM 39.3917 -78.9592 103° East 560 644 24,400 -2,542 Descending Washington Center
Tue 11:14:56 PM 39.3572 -78.7669 103° East 555 639 21,700 -2,678 Descending Washington Center
Tue 11:15:57 PM 39.3244 -78.5803 103° East 543 625 19,000 -2,850 Descending Washington Center
Tue 11:16:56 PM 39.2933 -78.4047 103° East 521 600 16,000 -2,847 Descending Washington Center
Tue 11:17:55 PM 39.2236 -78.2547 121° Southeast 488 562 13,400 -2,622 Descending Washington Center
Tue 11:18:55 PM 39.1578 -78.1292 124° Southeast 461 531 10,800 -1,587 Descending Washington Center
Tue 11:19:56 PM 39.0994 -78.0175 124° Southeast 418 481 10,200 -1,289 Descending Washington Center
Tue 11:20:56 PM 39.0472 -77.9169 124° Southeast 368 423 8,200 -1,475 Descending Washington Center
Tue 11:21:58 PM 38.9950 -77.8136 123° Southeast 326 375 7,200 -1,010 Descending Washington Center
Tue 11:24:18 PM 38.8667 -77.6333 132° Southeast 282 325 4,800 -816 Descending Potomac TRACON
Tue 11:25:24 PM 38.8167 -77.5833 142° Southeast 225 259 4,400 -700 Descending Potomac TRACON
Tue 11:26:18 PM 38.8167 -77.5167 90° East 206 237 3,400 -1,096 Descending Potomac TRACON
Tue 11:27:19 PM 38.8500 -77.4667 49° Northeast 170 196 2,300 -898 Descending Potomac TRACON
Tue 11:28:25 PM 38.8833 -77.4667 360° North 135 155 1,500 -714 Descending Potomac TRACON
Tue 11:29:25 PM 38.9167 -77.4667 360° North 125 144 800 -700 Descending Potomac TRACON
Tue 11:31:00 PM 38.9474 -77.4599 North  Level Estimated
Tue 11:38:00 PM 38.9474 -77.4599 159° South  Level Estimated
Tue 11:39:00 PM 38.9474 -77.4599 159° South  Level Estimated

Login

Don't have an account? Register now (free) for customized features, flight alerts, and more!